Terminal Aerodrome Forecast
Issued by NWS

Home | Current Version | Previous Version | Text Only | Print | Product List | Glossary On
Versions: 1 2 3 4 5 6 7 8 9 10 11
000
FTUS46 KHNX 300520
TAFMCE
TAF
KMCE 300520Z 3006/3106 32007KT P6SM BKN200
     FM300900 VRB04KT P6SM FEW120 BKN200
     FM301800 32011KT P6SM FEW200
      TEMPO 3022/3101 32014G21KT=

USA.gov is the U.S. government's official web portal to all federal, state and local government web resources and services.